createdAt,value
2023-01-07T00:01:05.600Z,4.28
2023-01-07T00:03:34.154Z,5.03
2023-01-07T00:06:04.232Z,4.53
2023-01-07T00:08:32.970Z,4.85
2023-01-07T00:11:02.883Z,3.78
2023-01-07T00:13:31.241Z,3.50
2023-01-07T00:16:00.431Z,3.83
2023-01-07T00:18:29.158Z,3.60
2023-01-07T00:20:58.827Z,3.65
2023-01-07T00:23:29.132Z,3.83
2023-01-07T00:26:02.192Z,3.72
2023-01-07T00:28:30.558Z,4.38
2023-01-07T00:31:01.676Z,3.13
2023-01-07T00:33:29.983Z,3.40
2023-01-07T00:36:01.913Z,3.28
2023-01-07T00:38:31.746Z,3.30
2023-01-07T00:41:00.100Z,3.67
2023-01-07T00:43:28.777Z,3.08
2023-01-07T00:45:57.415Z,3.83
2023-01-07T00:48:25.697Z,3.47
2023-01-07T00:50:54.997Z,3.10
2023-01-07T00:53:25.069Z,3.30
2023-01-07T00:55:54.822Z,3.30
2023-01-07T00:58:24.356Z,3.13
2023-01-07T01:00:56.448Z,3.40
2023-01-07T01:03:26.094Z,3.47
2023-01-07T01:05:55.819Z,3.38
2023-01-07T01:08:24.070Z,3.65
2023-01-07T01:10:52.402Z,3.10
2023-01-07T01:13:22.789Z,2.58
2023-01-07T01:15:51.648Z,3.10
2023-01-07T01:18:20.007Z,3.45
2023-01-07T01:20:48.604Z,2.80
2023-01-07T01:23:17.230Z,3.08
2023-01-07T01:25:45.830Z,3.03
2023-01-07T01:28:16.740Z,3.03
2023-01-07T01:30:46.378Z,3.60
2023-01-07T01:33:14.664Z,3.10
2023-01-07T01:35:43.049Z,3.33
2023-01-07T01:38:11.385Z,3.15
2023-01-07T01:40:39.954Z,3.53
2023-01-07T01:43:23.989Z,3.30
2023-01-07T01:45:54.221Z,2.83
2023-01-07T01:48:23.330Z,3.50
2023-01-07T01:50:52.916Z,3.63
2023-01-07T01:53:23.945Z,3.38
2023-01-07T01:55:55.361Z,3.35
2023-01-07T01:58:25.677Z,3.50
2023-01-07T02:00:57.816Z,4.15
2023-01-07T02:03:27.139Z,3.97
2023-01-07T02:05:55.896Z,4.15
2023-01-07T02:08:24.810Z,3.60
2023-01-07T02:11:03.153Z,3.47
2023-01-07T02:13:39.271Z,3.90
2023-01-07T02:16:14.491Z,4.10
2023-01-07T02:18:50.937Z,4.18
2023-01-07T02:21:26.184Z,4.70
2023-01-07T02:24:08.122Z,4.60
2023-01-07T02:26:54.439Z,4.60
2023-01-07T02:29:41.612Z,4.53
2023-01-07T02:32:27.058Z,4.38
2023-01-07T02:35:02.443Z,5.22
2023-01-07T02:37:37.126Z,4.60
2023-01-07T02:40:10.851Z,5.20
2023-01-07T02:42:43.065Z,5.10
2023-01-07T02:45:17.317Z,5.43
2023-01-07T02:47:51.542Z,4.88
2023-01-07T02:50:20.956Z,4.10
2023-01-07T02:52:49.918Z,4.57
2023-01-07T02:55:19.840Z,5.15
2023-01-07T02:58:07.662Z,4.13
2023-01-07T03:00:52.684Z,4.25
2023-01-07T03:03:30.297Z,3.85
2023-01-07T03:06:03.504Z,4.05
2023-01-07T03:08:37.797Z,4.20
2023-01-07T03:11:07.435Z,4.43
2023-01-07T03:13:41.381Z,3.67
2023-01-07T03:16:11.743Z,3.75
2023-01-07T03:18:43.455Z,3.65
2023-01-07T03:21:13.975Z,3.60
2023-01-07T03:23:44.897Z,4.45
2023-01-07T03:26:14.275Z,4.15
2023-01-07T03:28:44.170Z,4.50
2023-01-07T03:31:16.971Z,3.92
2023-01-07T03:33:49.806Z,3.72
2023-01-07T03:36:21.100Z,3.72
2023-01-07T03:38:50.079Z,4.00
2023-01-07T03:41:32.719Z,3.72
2023-01-07T03:44:01.175Z,3.65
2023-01-07T03:46:29.757Z,3.92
2023-01-07T03:48:59.955Z,4.07
2023-01-07T03:51:28.968Z,4.07
2023-01-07T03:53:57.520Z,4.28
2023-01-07T03:56:25.989Z,3.42
2023-01-07T03:58:54.393Z,3.35
2023-01-07T04:01:22.875Z,4.45
2023-01-07T04:03:51.283Z,4.25
2023-01-07T04:06:21.447Z,4.55
2023-01-07T04:08:50.470Z,4.53
2023-01-07T04:11:19.156Z,4.53
2023-01-07T04:13:47.653Z,3.97
2023-01-07T04:16:16.222Z,4.20
2023-01-07T04:18:44.565Z,4.10
2023-01-07T04:21:12.996Z,4.50
2023-01-07T04:23:44.393Z,3.95
2023-01-07T04:26:12.797Z,5.15
2023-01-07T04:28:42.628Z,4.25
2023-01-07T04:31:11.271Z,4.32
2023-01-07T04:33:39.701Z,5.05
2023-01-07T04:36:08.392Z,4.38
2023-01-07T04:38:36.619Z,4.05
2023-01-07T04:41:07.538Z,4.50
2023-01-07T04:43:36.284Z,5.07
2023-01-07T04:46:08.395Z,4.65
2023-01-07T04:48:37.514Z,4.20
2023-01-07T04:51:05.970Z,4.85
2023-01-07T04:53:34.791Z,4.60
2023-01-07T04:56:06.168Z,5.40
2023-01-07T04:58:35.768Z,4.63
2023-01-07T05:01:07.038Z,4.30
2023-01-07T05:03:36.364Z,4.60
2023-01-07T05:06:05.657Z,4.53
2023-01-07T05:08:34.863Z,5.07
2023-01-07T05:11:04.927Z,3.95
2023-01-07T05:13:35.278Z,4.38
2023-01-07T05:16:07.063Z,4.82
2023-01-07T05:18:35.821Z,5.20
2023-01-07T05:21:05.225Z,4.95
2023-01-07T05:23:35.253Z,4.40
2023-01-07T05:26:03.894Z,4.65
2023-01-07T05:28:33.140Z,4.57
2023-01-07T05:31:01.685Z,5.00
2023-01-07T05:33:33.161Z,4.72
2023-01-07T05:36:01.497Z,4.95
2023-01-07T05:38:30.114Z,4.63
2023-01-07T05:40:59.101Z,4.30
2023-01-07T05:43:28.811Z,4.60
2023-01-07T05:45:57.697Z,3.85
2023-01-07T05:48:26.306Z,5.05
2023-01-07T05:50:55.900Z,4.20
2023-01-07T05:53:24.363Z,4.25
2023-01-07T05:55:56.869Z,4.38
2023-01-07T05:58:25.503Z,4.25
2023-01-07T06:00:54.175Z,4.30
2023-01-07T06:03:22.936Z,4.05
2023-01-07T06:05:51.262Z,3.80
2023-01-07T06:08:20.971Z,3.55
2023-01-07T06:10:49.241Z,3.42
2023-01-07T06:13:17.692Z,4.10
2023-01-07T06:15:46.255Z,3.75
2023-01-07T06:18:14.557Z,3.58
2023-01-07T06:20:42.902Z,4.05
2023-01-07T06:23:11.289Z,3.65
2023-01-07T06:25:40.912Z,3.08
2023-01-07T06:28:09.292Z,3.33
2023-01-07T06:30:37.682Z,3.30
2023-01-07T06:33:06.397Z,3.22
2023-01-07T06:35:34.976Z,2.63
2023-01-07T06:38:03.320Z,3.20
2023-01-07T06:40:31.746Z,2.80
2023-01-07T06:43:01.619Z,3.00
2023-01-07T06:45:29.974Z,2.80
2023-01-07T06:47:58.529Z,3.17
2023-01-07T06:50:26.972Z,2.90
2023-01-07T06:52:56.796Z,2.65
2023-01-07T06:55:25.051Z,2.72
2023-01-07T06:57:53.397Z,2.53
2023-01-07T07:00:23.227Z,2.30
2023-01-07T07:02:51.612Z,2.25
2023-01-07T07:05:20.032Z,2.58
2023-01-07T07:07:48.905Z,1.70
2023-01-07T07:10:17.753Z,1.90
2023-01-07T07:12:46.141Z,1.75
2023-01-07T07:15:16.163Z,1.80
2023-01-07T07:17:46.793Z,2.10
2023-01-07T07:20:15.543Z,1.60
2023-01-07T07:22:48.169Z,1.90
2023-01-07T07:25:16.907Z,1.50
2023-01-07T07:27:47.012Z,1.42
2023-01-07T07:30:18.414Z,1.88
2023-01-07T07:32:51.931Z,1.42
2023-01-07T07:35:20.416Z,1.65
2023-01-07T07:37:48.861Z,1.50
2023-01-07T07:40:17.439Z,1.35
2023-01-07T07:43:10.899Z,1.08
2023-01-07T07:45:36.435Z,1.63
2023-01-07T07:48:07.834Z,1.20
2023-01-07T07:50:36.285Z,1.15
2023-01-07T07:53:04.941Z,1.10
2023-01-07T07:55:33.560Z,1.20
2023-01-07T07:58:01.837Z,1.20
2023-01-07T08:00:32.574Z,1.00
2023-01-07T08:03:01.299Z,1.10
2023-01-07T08:05:31.511Z,1.30
2023-01-07T08:08:02.599Z,1.02
2023-01-07T08:10:32.960Z,1.23
2023-01-07T08:13:01.374Z,0.98
2023-01-07T08:15:29.872Z,1.48
2023-01-07T08:17:59.357Z,1.08
2023-01-07T08:20:27.730Z,1.30
2023-01-07T08:23:01.675Z,0.98
2023-01-07T08:25:36.544Z,0.88
2023-01-07T08:28:05.412Z,1.20
2023-01-07T08:30:33.778Z,1.23
2023-01-07T08:33:02.201Z,1.10
2023-01-07T08:35:30.697Z,0.90
2023-01-07T08:38:03.901Z,1.00
2023-01-07T08:40:34.494Z,1.20
2023-01-07T08:43:06.127Z,1.17
2023-01-07T08:45:40.967Z,1.38
2023-01-07T08:48:09.422Z,1.13
2023-01-07T08:50:39.596Z,1.23
2023-01-07T08:53:09.264Z,1.30
2023-01-07T08:55:41.522Z,1.10
2023-01-07T08:58:14.115Z,0.90
2023-01-07T09:00:42.908Z,1.30
2023-01-07T09:03:11.184Z,0.88
2023-01-07T09:05:39.480Z,1.10
2023-01-07T09:08:11.641Z,0.93
2023-01-07T09:10:39.890Z,1.05
2023-01-07T09:13:14.294Z,0.90
2023-01-07T09:15:42.531Z,1.30
2023-01-07T09:18:10.872Z,0.90
2023-01-07T09:20:39.134Z,1.30
2023-01-07T09:23:08.740Z,1.50
2023-01-07T09:25:39.161Z,1.25
2023-01-07T09:28:07.337Z,1.27
2023-01-07T09:30:35.688Z,0.77
2023-01-07T09:33:06.276Z,1.17
2023-01-07T09:35:34.511Z,1.30
2023-01-07T09:38:02.886Z,0.90
2023-01-07T09:40:36.259Z,0.80
2023-01-07T09:43:07.807Z,0.98
2023-01-07T09:45:42.984Z,0.75
2023-01-07T09:48:14.647Z,0.88
2023-01-07T09:50:48.903Z,0.88
2023-01-07T09:53:20.623Z,0.85
2023-01-07T09:56:11.225Z,0.75
2023-01-07T09:58:41.535Z,0.70
2023-01-07T10:01:15.304Z,0.70
2023-01-07T10:03:48.998Z,0.90
2023-01-07T10:06:35.122Z,0.80
2023-01-07T10:09:14.439Z,1.00
2023-01-07T10:11:49.213Z,0.85
2023-01-07T10:14:38.338Z,0.70
2023-01-07T10:17:10.022Z,0.70
2023-01-07T10:19:41.754Z,0.60
2023-01-07T10:22:13.109Z,0.70
2023-01-07T10:24:42.816Z,0.90
2023-01-07T10:27:14.380Z,0.52
2023-01-07T10:29:48.946Z,0.70
2023-01-07T10:32:18.686Z,0.70
2023-01-07T10:34:48.762Z,0.60
2023-01-07T10:37:23.508Z,0.75
2023-01-07T10:39:57.827Z,0.95
2023-01-07T10:42:32.902Z,0.70
2023-01-07T10:45:10.994Z,0.80
2023-01-07T10:47:45.368Z,0.70
2023-01-07T10:50:32.198Z,0.75
2023-01-07T10:53:05.032Z,0.95
2023-01-07T10:55:42.515Z,0.85
2023-01-07T10:58:12.908Z,0.55
2023-01-07T11:00:41.318Z,1.25
2023-01-07T11:03:22.865Z,0.80
2023-01-07T11:05:53.240Z,0.90
2023-01-07T11:08:31.913Z,0.80
2023-01-07T11:11:00.580Z,0.80
2023-01-07T11:13:32.110Z,0.70
2023-01-07T11:16:08.033Z,0.73
2023-01-07T11:18:39.317Z,1.27
2023-01-07T11:21:08.008Z,0.70
2023-01-07T11:23:56.595Z,0.77
2023-01-07T11:26:26.658Z,0.85
2023-01-07T11:28:59.448Z,0.73
2023-01-07T11:31:42.622Z,0.77
2023-01-07T11:34:18.745Z,0.75
2023-01-07T11:36:52.171Z,0.82
2023-01-07T11:39:22.184Z,1.20
2023-01-07T11:41:55.009Z,0.63
2023-01-07T11:44:24.946Z,0.80
2023-01-07T11:46:53.708Z,1.00
2023-01-07T11:49:24.201Z,0.82
2023-01-07T11:51:52.789Z,0.65
2023-01-07T11:54:27.252Z,0.60
2023-01-07T11:57:11.952Z,0.85
2023-01-07T11:59:41.562Z,0.60
2023-01-07T12:02:26.952Z,0.80
2023-01-07T12:05:15.240Z,0.57
2023-01-07T12:07:48.751Z,0.65
2023-01-07T12:10:36.466Z,1.30
2023-01-07T12:13:06.217Z,0.60
2023-01-07T12:15:38.147Z,0.52
2023-01-07T12:18:29.005Z,0.60
2023-01-07T12:21:12.956Z,0.70
2023-01-07T12:23:47.794Z,0.70
2023-01-07T12:26:20.851Z,0.73
2023-01-07T12:28:58.920Z,0.90
2023-01-07T12:31:34.191Z,0.80
2023-01-07T12:34:07.726Z,0.95
2023-01-07T12:36:39.811Z,0.80
2023-01-07T12:39:19.918Z,0.98
2023-01-07T12:41:52.306Z,0.75
2023-01-07T12:44:22.194Z,0.80
2023-01-07T12:47:31.939Z,0.70
2023-01-07T12:49:51.138Z,0.88
2023-01-07T12:52:30.027Z,1.10
2023-01-07T12:55:07.250Z,0.80
2023-01-07T12:57:36.499Z,1.20
2023-01-07T13:00:09.926Z,1.00
2023-01-07T13:02:42.193Z,0.70
2023-01-07T13:05:18.856Z,1.00
2023-01-07T13:07:52.050Z,0.90
2023-01-07T13:10:27.118Z,1.02
2023-01-07T13:12:59.341Z,0.70
2023-01-07T13:15:29.967Z,1.00
2023-01-07T13:17:59.385Z,0.88
2023-01-07T13:20:35.225Z,0.88
2023-01-07T13:23:05.440Z,1.10
2023-01-07T13:25:45.561Z,1.08
2023-01-07T13:28:28.522Z,0.93
2023-01-07T13:31:09.854Z,1.20
2023-01-07T13:33:46.095Z,0.80
2023-01-07T13:36:23.425Z,1.10
2023-01-07T13:39:08.489Z,0.93
2023-01-07T13:41:44.591Z,1.10
2023-01-07T13:44:20.827Z,1.05
2023-01-07T13:46:49.864Z,1.05
2023-01-07T13:49:30.792Z,1.10
2023-01-07T13:52:13.598Z,1.02
2023-01-07T13:55:01.062Z,1.35
2023-01-07T13:57:45.779Z,1.10
2023-01-07T14:00:32.617Z,1.17
2023-01-07T14:03:01.510Z,1.17
2023-01-07T14:05:30.263Z,1.00
2023-01-07T14:08:00.220Z,0.95
2023-01-07T14:10:30.868Z,0.95
2023-01-07T14:13:17.565Z,0.93
2023-01-07T14:15:56.496Z,0.90
2023-01-07T14:18:46.400Z,1.00
2023-01-07T14:21:23.134Z,0.80
2023-01-07T14:23:57.468Z,0.88
2023-01-07T14:26:31.378Z,1.00
2023-01-07T14:29:14.530Z,1.08
2023-01-07T14:31:44.444Z,0.88
2023-01-07T14:34:21.834Z,0.90
2023-01-07T14:37:09.750Z,1.00
2023-01-07T14:39:43.178Z,0.73
2023-01-07T14:42:27.877Z,1.02
2023-01-07T14:44:58.094Z,0.80
2023-01-07T14:47:49.910Z,0.90
2023-01-07T14:50:30.200Z,0.80
2023-01-07T14:53:17.507Z,0.93
2023-01-07T14:55:57.944Z,1.27
2023-01-07T14:58:38.191Z,0.93
2023-01-07T15:01:21.958Z,1.02
2023-01-07T15:04:09.140Z,1.50
2023-01-07T15:06:41.066Z,1.00
2023-01-07T15:09:31.089Z,1.00
2023-01-07T15:12:21.488Z,1.52
2023-01-07T15:15:15.021Z,1.50
2023-01-07T15:17:46.457Z,1.63
2023-01-07T15:20:14.822Z,1.30
2023-01-07T15:22:58.250Z,1.10
2023-01-07T15:25:39.725Z,1.15
2023-01-07T15:28:10.451Z,1.13
2023-01-07T15:30:44.795Z,1.10
2023-01-07T15:33:24.710Z,1.00
2023-01-07T15:35:52.946Z,0.80
2023-01-07T15:38:31.442Z,1.20
2023-01-07T15:41:00.770Z,1.00
2023-01-07T15:43:33.795Z,1.10
2023-01-07T15:46:03.933Z,1.13
2023-01-07T15:48:32.890Z,1.10
2023-01-07T15:51:05.740Z,1.48
2023-01-07T15:53:35.332Z,1.00
2023-01-07T15:56:09.745Z,1.20
2023-01-07T15:58:40.457Z,1.00
2023-01-07T16:01:09.718Z,1.25
2023-01-07T16:03:40.314Z,0.88
2023-01-07T16:06:28.307Z,1.20
2023-01-07T16:08:58.465Z,1.05
2023-01-07T16:11:27.365Z,1.48
2023-01-07T16:13:59.583Z,1.13
2023-01-07T16:16:28.383Z,1.42
2023-01-07T16:18:59.087Z,1.42
2023-01-07T16:21:29.073Z,1.10
2023-01-07T16:23:58.677Z,1.17
2023-01-07T16:26:29.482Z,1.50
2023-01-07T16:28:59.782Z,1.30
2023-01-07T16:31:29.512Z,1.33
2023-01-07T16:34:00.119Z,1.25
2023-01-07T16:36:30.989Z,1.20
2023-01-07T16:39:02.534Z,1.73
2023-01-07T16:41:31.592Z,1.55
2023-01-07T16:44:00.667Z,1.52
2023-01-07T16:46:30.345Z,1.33
2023-01-07T16:49:18.140Z,1.35
2023-01-07T16:51:48.017Z,1.60
2023-01-07T16:54:26.444Z,1.55
2023-01-07T16:56:57.098Z,1.63
2023-01-07T16:59:27.974Z,1.50
2023-01-07T17:01:58.820Z,1.38
2023-01-07T17:04:29.975Z,1.88
2023-01-07T17:07:11.583Z,1.63
2023-01-07T17:09:41.345Z,1.80
2023-01-07T17:12:27.502Z,1.92
2023-01-07T17:14:55.805Z,1.60
2023-01-07T17:17:29.379Z,1.58
2023-01-07T17:20:08.599Z,1.63
2023-01-07T17:22:38.306Z,1.45
2023-01-07T17:25:14.224Z,1.50
2023-01-07T17:27:43.977Z,1.77
2023-01-07T17:30:17.042Z,1.77
2023-01-07T17:32:45.873Z,2.38
2023-01-07T17:35:21.945Z,2.25
2023-01-07T17:37:57.102Z,2.40
2023-01-07T17:40:26.993Z,1.83
2023-01-07T17:43:20.723Z,1.85
2023-01-07T17:45:49.234Z,1.60
2023-01-07T17:48:17.934Z,1.65
2023-01-07T17:50:46.521Z,1.80
2023-01-07T17:53:21.285Z,1.60
2023-01-07T17:55:50.860Z,2.22
2023-01-07T17:58:28.684Z,1.60
2023-01-07T18:00:58.062Z,1.30
2023-01-07T18:03:30.165Z,1.73
2023-01-07T18:06:02.912Z,1.63
2023-01-07T18:08:31.223Z,1.90
2023-01-07T18:11:21.562Z,1.67
2023-01-07T18:13:49.896Z,1.48
2023-01-07T18:16:20.660Z,1.67
2023-01-07T18:18:48.983Z,1.63
2023-01-07T18:21:17.761Z,2.30
2023-01-07T18:23:46.548Z,1.70
2023-01-07T18:26:16.393Z,1.80
2023-01-07T18:28:48.364Z,2.33
2023-01-07T18:31:22.060Z,1.52
2023-01-07T18:33:55.309Z,1.98
2023-01-07T18:36:26.008Z,1.83
2023-01-07T18:38:54.353Z,1.88
2023-01-07T18:41:24.437Z,1.83
2023-01-07T18:43:52.747Z,1.77
2023-01-07T18:46:25.968Z,1.90
2023-01-07T18:48:54.254Z,1.90
2023-01-07T18:51:24.877Z,2.03
2023-01-07T18:53:56.081Z,1.73
2023-01-07T18:56:29.748Z,2.13
2023-01-07T18:58:58.260Z,2.45
2023-01-07T19:01:31.772Z,1.60
2023-01-07T19:04:00.348Z,2.47
2023-01-07T19:06:32.037Z,2.85
2023-01-07T19:09:03.152Z,2.55
2023-01-07T19:11:43.871Z,1.95
2023-01-07T19:14:19.916Z,2.75
2023-01-07T19:16:51.481Z,2.17
2023-01-07T19:19:21.940Z,2.53
2023-01-07T19:21:51.103Z,2.80
2023-01-07T19:24:22.455Z,1.85
2023-01-07T19:26:59.467Z,2.65
2023-01-07T19:29:30.267Z,2.17
2023-01-07T19:32:01.310Z,2.22
2023-01-07T19:34:38.774Z,2.05
2023-01-07T19:37:09.000Z,2.65
2023-01-07T19:39:37.413Z,1.80
2023-01-07T19:42:07.230Z,2.03
2023-01-07T19:44:37.884Z,2.38
2023-01-07T19:47:07.102Z,2.20
2023-01-07T19:49:48.755Z,2.50
2023-01-07T19:52:19.010Z,2.42
2023-01-07T19:54:51.875Z,2.05
2023-01-07T19:57:39.380Z,1.98
2023-01-07T20:00:09.142Z,2.22
2023-01-07T20:02:37.515Z,2.75
2023-01-07T20:05:13.411Z,2.45
2023-01-07T20:07:45.227Z,2.30
2023-01-07T20:10:16.125Z,2.10
2023-01-07T20:12:46.007Z,2.22
2023-01-07T20:15:22.154Z,2.30
2023-01-07T20:18:01.064Z,3.13
2023-01-07T20:20:30.813Z,2.30
2023-01-07T20:23:05.297Z,2.17
2023-01-07T20:25:35.282Z,2.33
2023-01-07T20:28:05.585Z,2.47
2023-01-07T20:30:36.160Z,2.53
2023-01-07T20:33:04.852Z,2.50
2023-01-07T20:35:33.177Z,2.60
2023-01-07T20:38:07.028Z,2.42
2023-01-07T20:40:35.611Z,3.33
2023-01-07T20:43:06.022Z,2.70
2023-01-07T20:45:38.233Z,2.42
2023-01-07T20:48:07.452Z,2.65
2023-01-07T20:50:36.393Z,2.70
2023-01-07T20:53:05.111Z,2.33
2023-01-07T20:55:33.865Z,2.80
2023-01-07T20:58:02.838Z,2.30
2023-01-07T21:00:40.358Z,2.42
2023-01-07T21:03:09.579Z,2.70
2023-01-07T21:05:39.002Z,2.40
2023-01-07T21:08:08.331Z,2.28
2023-01-07T21:10:37.937Z,2.58
2023-01-07T21:13:09.001Z,2.47
2023-01-07T21:15:38.945Z,2.20
2023-01-07T21:18:07.892Z,2.22
2023-01-07T21:20:36.527Z,2.42
2023-01-07T21:23:09.507Z,2.40
2023-01-07T21:25:39.794Z,2.42
2023-01-07T21:28:11.087Z,2.30
2023-01-07T21:30:43.109Z,2.33
2023-01-07T21:33:14.779Z,2.00
2023-01-07T21:35:43.171Z,2.22
2023-01-07T21:38:15.857Z,2.22
2023-01-07T21:40:44.218Z,2.28
2023-01-07T21:43:18.468Z,2.45
2023-01-07T21:45:48.606Z,2.38
2023-01-07T21:48:19.021Z,2.08
2023-01-07T21:50:47.607Z,2.35
2023-01-07T21:53:15.854Z,1.90
2023-01-07T21:55:48.880Z,2.13
2023-01-07T21:58:19.654Z,2.25
2023-01-07T22:00:52.327Z,2.47
2023-01-07T22:03:20.812Z,2.10
2023-01-07T22:05:57.764Z,2.17
2023-01-07T22:08:26.297Z,2.00
2023-01-07T22:10:54.617Z,1.77
2023-01-07T22:13:23.137Z,2.17
2023-01-07T22:15:52.878Z,2.20
2023-01-07T22:18:21.131Z,2.13
2023-01-07T22:20:56.289Z,2.50
2023-01-07T22:23:24.980Z,2.30
2023-01-07T22:25:53.210Z,2.28
2023-01-07T22:28:23.497Z,1.98
2023-01-07T22:30:54.560Z,2.00
2023-01-07T22:33:23.499Z,2.30
2023-01-07T22:35:52.260Z,2.38
2023-01-07T22:38:21.680Z,2.25
2023-01-07T22:40:50.067Z,2.30
2023-01-07T22:43:23.989Z,2.33
2023-01-07T22:45:55.819Z,2.38
2023-01-07T22:48:27.272Z,2.65
2023-01-07T22:50:56.635Z,2.22
2023-01-07T22:53:25.545Z,1.80
2023-01-07T22:55:53.935Z,1.67
2023-01-07T22:58:22.468Z,1.65
2023-01-07T23:01:14.094Z,2.38
2023-01-07T23:03:43.145Z,1.30
2023-01-07T23:06:12.872Z,1.65
2023-01-07T23:08:43.779Z,1.00
2023-01-07T23:11:32.222Z,1.00
2023-01-07T23:14:06.565Z,0.80
2023-01-07T23:16:42.562Z,0.95
2023-01-07T23:19:10.968Z,1.48
2023-01-07T23:21:43.353Z,0.98
2023-01-07T23:24:12.480Z,0.60
2023-01-07T23:26:40.809Z,0.75
2023-01-07T23:29:11.480Z,0.70
2023-01-07T23:31:45.818Z,0.73
2023-01-07T23:34:15.173Z,0.43
2023-01-07T23:36:47.174Z,0.60
2023-01-07T23:39:18.821Z,0.50
2023-01-07T23:41:49.115Z,0.75
2023-01-07T23:44:17.784Z,0.75
2023-01-07T23:46:49.766Z,0.88
2023-01-07T23:49:18.457Z,0.85
2023-01-07T23:51:46.742Z,0.47
2023-01-07T23:54:15.245Z,0.40
2023-01-07T23:56:43.714Z,0.30
2023-01-07T23:59:12.845Z,0.80
